createdAt,value
2022-08-05T00:00:18.586Z,7.40
2022-08-05T00:02:51.008Z,5.05
2022-08-05T00:06:01.459Z,3.20
2022-08-05T00:08:34.786Z,4.00
2022-08-05T00:11:02.443Z,4.60
2022-08-05T00:13:38.195Z,3.42
2022-08-05T00:16:12.751Z,4.80
2022-08-05T00:18:46.015Z,6.00
2022-08-05T00:21:17.325Z,4.97
2022-08-05T00:23:53.385Z,6.05
2022-08-05T00:26:34.414Z,4.97
2022-08-05T00:29:01.773Z,4.50
2022-08-05T00:31:53.427Z,4.95
2022-08-05T00:34:55.634Z,6.95
2022-08-05T00:37:12.709Z,5.43
2022-08-05T00:39:58.600Z,5.78
2022-08-05T00:42:37.203Z,5.50
2022-08-05T00:45:08.442Z,8.25
2022-08-05T00:47:56.783Z,6.40
2022-08-05T00:50:25.388Z,7.07
2022-08-05T00:52:55.136Z,7.15
2022-08-05T00:55:23.503Z,7.68
2022-08-05T00:58:16.963Z,5.97
2022-08-05T01:00:50.104Z,7.00
2022-08-05T01:03:22.732Z,7.32
2022-08-05T01:05:51.697Z,7.45
2022-08-05T01:08:30.292Z,11.65
2022-08-05T01:11:24.231Z,12.18
2022-08-05T01:14:34.106Z,10.35
2022-08-05T01:17:06.206Z,11.48
2022-08-05T01:20:01.881Z,12.57
2022-08-05T01:23:15.385Z,13.55
2022-08-05T01:26:01.145Z,17.77
2022-08-05T01:28:39.421Z,10.93
2022-08-05T01:31:15.234Z,9.98
2022-08-05T01:34:14.253Z,10.77
2022-08-05T01:36:49.543Z,14.57
2022-08-05T01:39:46.142Z,12.07
2022-08-05T01:42:13.705Z,11.27
2022-08-05T01:44:45.704Z,10.80
2022-08-05T01:47:22.862Z,12.40
2022-08-05T01:50:01.463Z,12.07
2022-08-05T01:52:32.696Z,12.32
2022-08-05T01:55:04.582Z,10.27
2022-08-05T01:58:10.631Z,11.98
2022-08-05T02:00:30.263Z,12.93
2022-08-05T02:03:07.643Z,10.02
2022-08-05T02:05:59.623Z,8.52
2022-08-05T02:08:30.637Z,11.82
2022-08-05T02:11:12.003Z,11.07
2022-08-05T02:13:48.691Z,7.90
2022-08-05T02:16:32.935Z,11.13
2022-08-05T02:19:23.903Z,9.52
2022-08-05T02:22:25.422Z,8.68
2022-08-05T02:25:12.492Z,8.15
2022-08-05T02:27:59.382Z,8.70
2022-08-05T02:30:37.933Z,11.80
2022-08-05T02:33:24.389Z,8.95
2022-08-05T02:36:05.524Z,8.35
2022-08-05T02:38:35.537Z,7.85
2022-08-05T02:41:14.454Z,8.43
2022-08-05T02:44:06.067Z,8.38
2022-08-05T02:46:43.936Z,10.50
2022-08-05T02:49:22.415Z,8.63
2022-08-05T02:52:04.006Z,8.82
2022-08-05T02:54:36.263Z,9.90
2022-08-05T02:58:11.266Z,7.53
2022-08-05T02:59:59.489Z,10.00
2022-08-05T03:02:34.613Z,9.90
2022-08-05T03:05:04.351Z,8.80
2022-08-05T03:08:00.978Z,8.15
2022-08-05T03:10:22.067Z,7.82
2022-08-05T03:12:54.315Z,5.50
2022-08-05T03:15:23.533Z,6.93
2022-08-05T03:17:57.747Z,6.95
2022-08-05T03:20:25.332Z,6.13
2022-08-05T03:22:57.128Z,6.80
2022-08-05T03:25:32.809Z,5.95
2022-08-05T03:28:14.543Z,4.53
2022-08-05T03:30:48.559Z,5.00
2022-08-05T03:33:17.143Z,8.90
2022-08-05T03:35:48.704Z,6.90
2022-08-05T03:38:17.691Z,7.33
2022-08-05T03:41:00.713Z,7.70
2022-08-05T03:44:09.236Z,7.65
2022-08-05T03:46:42.303Z,6.38
2022-08-05T03:49:10.063Z,6.35
2022-08-05T03:52:37.187Z,8.02
2022-08-05T03:56:01.492Z,7.45
2022-08-05T03:57:46.855Z,8.18
2022-08-05T04:00:16.482Z,8.20
2022-08-05T04:02:58.204Z,8.02
2022-08-05T04:05:35.742Z,7.45
2022-08-05T04:08:29.613Z,10.32
2022-08-05T04:10:55.750Z,9.55
2022-08-05T04:13:23.456Z,8.73
2022-08-05T04:16:02.889Z,7.18
2022-08-05T04:18:34.286Z,6.82
2022-08-05T04:21:02.539Z,6.90
2022-08-05T04:24:06.290Z,8.05
2022-08-05T04:26:19.302Z,8.73
2022-08-05T04:28:51.299Z,7.82
2022-08-05T04:31:20.271Z,8.27
2022-08-05T04:34:17.429Z,6.95
2022-08-05T04:36:45.634Z,7.32
2022-08-05T04:39:18.366Z,8.85
2022-08-05T04:41:48.040Z,7.32
2022-08-05T04:44:21.282Z,7.20
2022-08-05T04:46:56.769Z,7.30
2022-08-05T04:49:38.883Z,6.35
2022-08-05T04:52:14.022Z,9.32
2022-08-05T04:54:42.521Z,8.00
2022-08-05T04:57:09.862Z,8.00
2022-08-05T04:59:38.966Z,10.02
2022-08-05T05:02:36.334Z,11.00
2022-08-05T05:05:02.268Z,6.50
2022-08-05T05:07:32.677Z,7.82
2022-08-05T05:10:04.482Z,7.78
2022-08-05T05:12:32.334Z,6.50
2022-08-05T05:14:59.594Z,20.52
2022-08-05T05:17:56.764Z,8.05
2022-08-05T05:22:58.439Z,7.43
2022-08-05T05:25:40.239Z,8.05
2022-08-05T05:28:09.259Z,7.35
2022-08-05T05:30:37.593Z,11.02
2022-08-05T05:33:15.844Z,8.38
2022-08-05T05:35:47.724Z,6.28
2022-08-05T05:38:26.719Z,10.07
2022-08-05T05:40:56.483Z,8.18
2022-08-05T05:43:54.290Z,7.75
2022-08-05T05:46:17.296Z,10.10
2022-08-05T05:48:48.192Z,8.32
2022-08-05T05:51:27.833Z,7.45
2022-08-05T05:53:59.512Z,9.02
2022-08-05T05:56:34.110Z,8.98
2022-08-05T05:59:05.403Z,7.40
2022-08-05T06:01:39.703Z,7.65
2022-08-05T06:04:12.153Z,7.47
2022-08-05T06:06:43.085Z,6.70
2022-08-05T06:09:17.279Z,10.60
2022-08-05T06:11:59.075Z,8.38
2022-08-05T06:14:29.038Z,6.15
2022-08-05T06:16:56.872Z,8.88
2022-08-05T06:19:32.972Z,8.43
2022-08-05T06:22:04.145Z,7.97
2022-08-05T06:24:32.214Z,9.25
2022-08-05T06:26:59.604Z,8.10
2022-08-05T06:29:46.559Z,8.60
2022-08-05T06:32:25.674Z,11.40
2022-08-05T06:34:58.535Z,10.00
2022-08-05T06:37:56.182Z,7.75
2022-08-05T06:40:18.170Z,8.50
2022-08-05T06:42:52.610Z,6.95
2022-08-05T06:45:44.478Z,10.35
2022-08-05T06:48:36.386Z,7.97
2022-08-05T06:50:57.283Z,8.00
2022-08-05T06:53:28.610Z,8.68
2022-08-05T06:56:00.993Z,9.07
2022-08-05T06:58:34.798Z,12.73
2022-08-05T07:01:04.368Z,7.55
2022-08-05T07:03:33.333Z,7.53
2022-08-05T07:06:06.153Z,11.25
2022-08-05T07:08:47.958Z,10.70
2022-08-05T07:11:22.115Z,10.00
2022-08-05T07:14:19.939Z,8.27
2022-08-05T07:17:56.227Z,10.50
2022-08-05T07:22:28.307Z,6.45
2022-08-05T07:25:23.553Z,5.90
2022-08-05T07:27:58.296Z,9.20
2022-08-05T07:30:39.999Z,9.60
2022-08-05T07:33:16.825Z,6.93
2022-08-05T07:36:03.641Z,6.47
2022-08-05T07:38:42.507Z,9.75
2022-08-05T07:42:07.698Z,9.45
2022-08-05T07:44:06.544Z,6.97
2022-08-05T07:46:42.063Z,6.57
2022-08-05T07:49:15.608Z,6.03
2022-08-05T07:51:53.591Z,6.80
2022-08-05T07:54:31.639Z,9.02
2022-08-05T07:57:17.594Z,8.90
2022-08-05T07:59:52.366Z,8.90
2022-08-05T08:02:26.514Z,7.85
2022-08-05T08:04:58.796Z,8.52
2022-08-05T08:07:28.464Z,8.82
2022-08-05T08:09:56.293Z,8.77
2022-08-05T08:12:37.284Z,14.90
2022-08-05T08:15:15.206Z,7.82
2022-08-05T08:17:50.809Z,7.30
2022-08-05T08:20:44.574Z,7.00
2022-08-05T08:23:59.683Z,8.75
2022-08-05T08:26:02.481Z,9.23
2022-08-05T08:28:36.183Z,11.00
2022-08-05T08:31:10.033Z,8.55
2022-08-05T08:33:43.764Z,8.73
2022-08-05T08:36:38.831Z,9.50
2022-08-05T08:38:58.746Z,9.88
2022-08-05T08:41:52.377Z,7.65
2022-08-05T08:45:24.264Z,6.35
2022-08-05T08:47:47.472Z,6.35
2022-08-05T08:50:22.299Z,8.45
2022-08-05T08:52:55.925Z,11.68
2022-08-05T08:56:01.710Z,6.60
2022-08-05T08:58:13.252Z,7.20
2022-08-05T09:00:42.095Z,5.90
2022-08-05T09:03:11.509Z,10.10
2022-08-05T09:06:08.434Z,9.40
2022-08-05T09:08:27.345Z,8.20
2022-08-05T09:10:54.913Z,7.45
2022-08-05T09:13:23.622Z,6.32
2022-08-05T09:15:51.993Z,8.65
2022-08-05T09:18:19.723Z,5.70
2022-08-05T09:20:47.311Z,5.50
2022-08-05T09:23:21.703Z,7.50
2022-08-05T09:26:03.325Z,9.40
2022-08-05T09:28:35.058Z,9.68
2022-08-05T09:31:43.687Z,7.60
2022-08-05T09:34:00.223Z,6.60
2022-08-05T09:36:55.574Z,9.07
2022-08-05T09:39:39.196Z,6.20
2022-08-05T09:42:20.153Z,7.85
2022-08-05T09:44:56.607Z,6.50
2022-08-05T09:47:36.322Z,8.02
2022-08-05T09:50:37.506Z,11.48
2022-08-05T09:53:06.373Z,9.55
2022-08-05T09:55:57.651Z,6.38
2022-08-05T09:58:25.474Z,9.57
2022-08-05T10:01:13.498Z,6.85
2022-08-05T10:04:00.526Z,6.15
2022-08-05T10:06:28.655Z,14.40
2022-08-05T10:08:56.846Z,6.25
2022-08-05T10:11:24.243Z,7.13
2022-08-05T10:13:58.776Z,6.30
2022-08-05T10:16:41.765Z,5.00
2022-08-05T10:19:23.646Z,6.55
2022-08-05T10:21:59.704Z,9.20
2022-08-05T10:24:28.602Z,7.35
2022-08-05T10:27:00.596Z,7.15
2022-08-05T10:30:06.627Z,6.57
2022-08-05T10:33:01.178Z,6.57
2022-08-05T10:35:08.994Z,9.93
2022-08-05T10:37:44.505Z,9.10
2022-08-05T10:40:45.076Z,10.75
2022-08-05T10:43:19.094Z,7.72
2022-08-05T10:46:06.353Z,7.75
2022-08-05T10:48:39.503Z,6.85
2022-08-05T10:51:23.062Z,8.10
2022-08-05T10:54:01.566Z,8.80
2022-08-05T10:56:36.663Z,5.97
2022-08-05T11:00:01.042Z,8.57
2022-08-05T11:02:34.397Z,6.90
2022-08-05T11:05:00.273Z,10.32
2022-08-05T11:07:33.278Z,6.63
2022-08-05T11:10:29.327Z,6.63
2022-08-05T11:12:58.726Z,7.35
2022-08-05T11:16:00.894Z,8.35
2022-08-05T11:18:34.109Z,7.18
2022-08-05T11:21:11.565Z,7.57
2022-08-05T11:24:04.503Z,5.68
2022-08-05T11:26:32.535Z,8.50
2022-08-05T11:29:13.434Z,14.13
2022-08-05T11:31:58.293Z,5.78
2022-08-05T11:34:51.079Z,8.65
2022-08-05T11:38:30.245Z,5.75
2022-08-05T11:41:03.622Z,7.28
2022-08-05T11:44:12.576Z,5.10
2022-08-05T11:47:11.131Z,4.75
2022-08-05T11:49:43.355Z,5.80
2022-08-05T11:52:29.224Z,5.65
2022-08-05T11:54:58.788Z,8.25
2022-08-05T11:58:08.362Z,4.75
2022-08-05T12:00:30.586Z,6.47
2022-08-05T12:02:58.409Z,4.82
2022-08-05T12:05:36.093Z,6.85
2022-08-05T12:08:11.528Z,7.80
2022-08-05T12:10:46.577Z,7.53
2022-08-05T12:13:27.971Z,6.82
2022-08-05T12:16:14.406Z,7.75
2022-08-05T12:18:42.786Z,5.85
2022-08-05T12:21:24.234Z,6.18
2022-08-05T12:24:06.753Z,6.05
2022-08-05T12:32:02.056Z,7.10
2022-08-05T12:34:33.805Z,7.63
2022-08-05T12:37:17.682Z,8.07
2022-08-05T12:39:53.804Z,6.75
2022-08-05T12:42:25.276Z,6.45
2022-08-05T12:44:53.028Z,5.18
2022-08-05T12:47:31.120Z,8.10
2022-08-05T12:50:04.369Z,5.57
2022-08-05T12:52:42.181Z,6.32
2022-08-05T12:55:26.624Z,11.65
2022-08-05T12:58:50.934Z,6.95
2022-08-05T13:01:59.783Z,6.18
2022-08-05T13:03:42.092Z,8.82
2022-08-05T13:06:16.603Z,5.75
2022-08-05T13:08:50.740Z,8.00
2022-08-05T13:11:25.479Z,12.95
2022-08-05T13:14:15.977Z,8.02
2022-08-05T13:16:57.306Z,33.75
2022-08-05T13:19:52.433Z,6.78
2022-08-05T13:22:29.201Z,5.72
2022-08-05T13:25:00.470Z,6.85
2022-08-05T13:27:42.037Z,7.40
2022-08-05T13:30:35.041Z,6.97
2022-08-05T13:35:46.922Z,8.25
2022-08-05T13:38:30.763Z,12.57
2022-08-05T13:41:04.235Z,10.43
2022-08-05T13:43:45.858Z,7.45
2022-08-05T13:46:30.671Z,6.25
2022-08-05T13:49:09.929Z,5.82
2022-08-05T13:51:41.001Z,7.22
2022-08-05T13:54:15.075Z,7.88
2022-08-05T13:56:45.137Z,5.85
2022-08-05T13:59:23.767Z,8.32
2022-08-05T14:01:57.528Z,5.38
2022-08-05T14:04:50.139Z,4.13
2022-08-05T14:07:55.487Z,7.22
2022-08-05T14:10:30.682Z,6.07
2022-08-05T14:12:59.835Z,9.52
2022-08-05T14:16:05.605Z,6.65
2022-08-05T14:18:18.652Z,8.95
2022-08-05T14:20:55.074Z,8.35
2022-08-05T14:23:25.518Z,8.02
2022-08-05T14:25:58.867Z,7.03
2022-08-05T14:28:30.677Z,7.68
2022-08-05T14:30:59.745Z,5.25
2022-08-05T14:33:56.811Z,6.53
2022-08-05T14:36:16.037Z,6.95
2022-08-05T14:38:50.145Z,5.53
2022-08-05T14:41:18.675Z,5.93
2022-08-05T14:43:59.324Z,6.72
2022-08-05T14:46:35.004Z,7.43
2022-08-05T14:49:07.445Z,6.40
2022-08-05T14:51:42.777Z,7.57
2022-08-05T14:54:28.141Z,6.95
2022-08-05T14:56:58.806Z,5.85
2022-08-05T14:59:29.181Z,6.90
2022-08-05T15:01:57.923Z,4.85
2022-08-05T15:04:27.272Z,5.88
2022-08-05T15:06:56.596Z,5.82
2022-08-05T15:09:51.530Z,6.78
2022-08-05T15:12:16.861Z,6.05
2022-08-05T15:14:49.948Z,9.30
2022-08-05T15:17:46.502Z,5.25
2022-08-05T15:20:18.306Z,5.43
2022-08-05T15:22:52.197Z,5.78
2022-08-05T15:25:23.512Z,6.80
2022-08-05T15:28:13.132Z,7.72
2022-08-05T15:30:43.393Z,7.20
2022-08-05T15:33:11.732Z,7.43
2022-08-05T15:35:45.549Z,4.75
2022-08-05T15:38:36.169Z,7.40
2022-08-05T15:41:20.769Z,7.15
2022-08-05T15:43:48.672Z,6.72
2022-08-05T15:46:16.194Z,7.60
2022-08-05T15:48:51.943Z,7.50
2022-08-05T15:52:13.240Z,5.88
2022-08-05T15:54:14.988Z,4.65
2022-08-05T15:56:43.686Z,5.85
2022-08-05T15:59:20.235Z,6.05
2022-08-05T16:01:52.599Z,6.05
2022-08-05T16:04:25.543Z,8.93
2022-08-05T16:06:55.476Z,7.63
2022-08-05T16:09:23.795Z,6.28
2022-08-05T16:11:53.815Z,7.30
2022-08-05T16:14:22.569Z,5.28
2022-08-05T16:16:50.662Z,8.00
2022-08-05T16:19:25.322Z,6.70
2022-08-05T16:22:07.326Z,10.90
2022-08-05T16:24:41.419Z,6.30
2022-08-05T16:27:19.246Z,6.20
2022-08-05T16:29:59.716Z,6.20
2022-08-05T16:32:29.322Z,9.75
2022-08-05T16:34:58.940Z,5.80
2022-08-05T16:38:16.174Z,8.60
2022-08-05T16:40:26.758Z,6.00
2022-08-05T16:42:56.857Z,8.43
2022-08-05T16:46:04.070Z,7.05
2022-08-05T16:48:11.605Z,5.53
2022-08-05T16:50:53.495Z,5.85
2022-08-05T16:53:22.959Z,6.57
2022-08-05T16:56:00.120Z,6.63
2022-08-05T16:58:27.425Z,6.32
2022-08-05T17:00:55.364Z,8.63
2022-08-05T17:03:22.986Z,6.50
2022-08-05T17:05:54.275Z,7.78
2022-08-05T17:08:36.409Z,6.43
2022-08-05T17:11:17.462Z,5.20
2022-08-05T17:13:45.866Z,11.13
2022-08-05T17:16:29.640Z,7.53
2022-08-05T17:18:57.998Z,16.58
2022-08-05T17:21:25.326Z,5.80
2022-08-05T17:24:18.376Z,5.40
2022-08-05T17:26:51.226Z,10.38
2022-08-05T17:29:22.527Z,7.35
2022-08-05T17:32:00.394Z,7.45
2022-08-05T17:34:29.771Z,5.57
2022-08-05T17:36:57.745Z,7.20
2022-08-05T17:39:33.186Z,7.78
2022-08-05T17:42:28.495Z,5.72
2022-08-05T17:44:51.392Z,6.65
2022-08-05T17:47:22.027Z,7.85
2022-08-05T17:50:04.050Z,5.53
2022-08-05T17:52:53.096Z,5.97
2022-08-05T17:55:34.152Z,6.28
2022-08-05T17:58:02.475Z,7.65
2022-08-05T18:00:30.277Z,7.88
2022-08-05T18:02:58.281Z,6.32
2022-08-05T18:05:27.890Z,8.32
2022-08-05T18:07:56.847Z,6.25
2022-08-05T18:10:24.510Z,6.95
2022-08-05T18:12:53.106Z,6.70
2022-08-05T18:15:20.855Z,7.43
2022-08-05T18:18:01.167Z,5.40
2022-08-05T18:20:32.024Z,5.07
2022-08-05T18:23:11.191Z,6.60
2022-08-05T18:25:44.041Z,6.57
2022-08-05T18:28:16.136Z,5.45
2022-08-05T18:30:45.980Z,6.07
2022-08-05T18:33:23.121Z,4.47
2022-08-05T18:36:03.691Z,7.65
2022-08-05T18:38:36.382Z,10.77
2022-08-05T18:41:56.462Z,6.28
2022-08-05T18:43:53.017Z,5.43
2022-08-05T18:46:20.663Z,5.05
2022-08-05T18:48:51.565Z,6.28
2022-08-05T18:52:02.766Z,6.28
2022-08-05T18:54:28.585Z,5.30
2022-08-05T18:57:01.044Z,4.97
2022-08-05T18:59:43.212Z,4.93
2022-08-05T19:02:38.073Z,6.82
2022-08-05T19:06:06.023Z,4.15
2022-08-05T19:07:57.003Z,4.68
2022-08-05T19:10:26.623Z,6.15
2022-08-05T19:12:57.337Z,6.13
2022-08-05T19:15:58.828Z,4.95
2022-08-05T19:18:22.365Z,5.95
2022-08-05T19:20:54.276Z,9.50
2022-08-05T19:24:05.141Z,6.88
2022-08-05T19:26:11.781Z,6.18
2022-08-05T19:28:43.622Z,7.07
2022-08-05T19:31:13.217Z,10.63
2022-08-05T19:33:48.751Z,5.43
2022-08-05T19:36:29.350Z,6.13
2022-08-05T19:38:58.926Z,6.95
2022-08-05T19:41:58.293Z,8.25
2022-08-05T19:44:17.056Z,5.72
2022-08-05T19:46:46.393Z,7.65
2022-08-05T19:49:16.984Z,8.95
2022-08-05T19:52:04.790Z,6.50
2022-08-05T19:54:34.554Z,7.65
2022-08-05T19:57:09.521Z,5.47
2022-08-05T19:59:56.486Z,4.93
2022-08-05T20:02:28.024Z,4.53
2022-08-05T20:04:58.849Z,6.45
2022-08-05T20:07:48.291Z,3.03
2022-08-05T20:10:17.507Z,3.83
2022-08-05T20:12:49.239Z,5.22
2022-08-05T20:15:48.139Z,6.75
2022-08-05T20:18:10.368Z,3.88
2022-08-05T20:20:56.962Z,4.85
2022-08-05T20:23:40.238Z,8.02
2022-08-05T20:26:16.585Z,2.90
2022-08-05T20:28:51.052Z,5.07
2022-08-05T20:31:36.759Z,6.63
2022-08-05T20:34:05.136Z,4.72
2022-08-05T20:36:32.728Z,5.90
2022-08-05T20:39:00.203Z,6.75
2022-08-05T20:41:44.007Z,6.90
2022-08-05T20:44:17.710Z,7.88
2022-08-05T20:46:59.680Z,7.53
2022-08-05T20:49:27.446Z,6.25
2022-08-05T20:51:55.949Z,6.28
2022-08-05T20:54:59.925Z,6.90
2022-08-05T20:57:29.134Z,10.30
2022-08-05T21:00:21.155Z,29.85
2022-08-05T21:02:56.089Z,20.50
2022-08-05T21:05:24.839Z,27.58
2022-08-05T21:07:52.547Z,35.50
2022-08-05T21:10:21.477Z,31.92
2022-08-05T21:12:57.861Z,37.85
2022-08-05T21:15:36.836Z,45.53
2022-08-05T21:18:04.726Z,36.42
2022-08-05T21:20:33.495Z,35.15
2022-08-05T21:23:01.606Z,23.33
2022-08-05T21:25:33.662Z,15.07
2022-08-05T21:28:03.109Z,10.30
2022-08-05T21:30:31.685Z,6.43
2022-08-05T21:32:59.930Z,4.88
2022-08-05T21:35:55.403Z,4.07
2022-08-05T21:38:17.892Z,6.80
2022-08-05T21:40:45.274Z,5.00
2022-08-05T21:43:17.681Z,5.55
2022-08-05T21:45:57.428Z,4.22
2022-08-05T21:48:28.789Z,6.57
2022-08-05T21:50:57.244Z,4.90
2022-08-05T21:53:27.581Z,6.05
2022-08-05T21:56:09.599Z,4.72
2022-08-05T21:58:42.100Z,4.45
2022-08-05T22:01:10.777Z,7.25
2022-08-05T22:03:48.975Z,9.63
2022-08-05T22:06:23.116Z,7.78
2022-08-05T22:09:13.791Z,8.73
2022-08-05T22:11:48.387Z,9.00
2022-08-05T22:14:34.517Z,5.13
2022-08-05T22:17:07.457Z,7.40
2022-08-05T22:20:02.125Z,5.55
2022-08-05T22:22:27.769Z,7.38
2022-08-05T22:25:20.942Z,5.70
2022-08-05T22:28:08.131Z,7.45
2022-08-05T22:30:55.554Z,7.53
2022-08-05T22:33:57.944Z,6.53
2022-08-05T22:36:15.918Z,7.22
2022-08-05T22:38:48.497Z,8.43
2022-08-05T22:42:04.921Z,6.40
2022-08-05T22:44:06.117Z,5.70
2022-08-05T22:46:33.466Z,6.25
2022-08-05T22:49:12.404Z,6.93
2022-08-05T22:52:05.527Z,6.43
2022-08-05T22:54:36.472Z,10.15
2022-08-05T22:57:06.939Z,15.02
2022-08-05T22:59:44.140Z,13.55
2022-08-05T23:02:18.637Z,12.23
2022-08-05T23:05:18.297Z,15.85
2022-08-05T23:07:48.620Z,27.27
2022-08-05T23:10:23.477Z,21.85
2022-08-05T23:12:55.074Z,17.27
2022-08-05T23:15:28.967Z,23.83
2022-08-05T23:18:00.737Z,13.50
2022-08-05T23:20:37.483Z,12.82
2022-08-05T23:23:08.198Z,6.30
2022-08-05T23:25:53.524Z,7.60
2022-08-05T23:28:28.752Z,17.67
2022-08-05T23:31:02.261Z,22.13
2022-08-05T23:34:04.952Z,19.45
2022-08-05T23:36:38.558Z,19.10
2022-08-05T23:39:07.380Z,17.92
2022-08-05T23:41:37.304Z,17.10
2022-08-05T23:44:09.026Z,30.30
2022-08-05T23:46:37.285Z,29.48
2022-08-05T23:49:16.158Z,30.95
2022-08-05T23:52:03.220Z,42.95
2022-08-05T23:54:38.384Z,35.30
2022-08-05T23:57:07.449Z,30.70
